sensor_id;sensor_type;location;lat;lon;timestamp;pressure;altitude;pressure_sealevel;temperature;humidity
52503;BME280;38412;53.638;20.750;2022-07-09T00:01:25;100382.56;;;17.83;73.73
52503;BME280;38412;53.638;20.750;2022-07-09T00:03:51;100389.44;;;17.77;72.96
52503;BME280;38412;53.638;20.750;2022-07-09T00:06:20;100382.22;;;17.70;72.80
52503;BME280;38412;53.638;20.750;2022-07-09T00:08:45;100383.44;;;17.67;74.03
52503;BME280;38412;53.638;20.750;2022-07-09T00:11:11;100387.59;;;17.70;74.08
52503;BME280;38412;53.638;20.750;2022-07-09T00:13:36;100385.25;;;17.75;74.29
52503;BME280;38412;53.638;20.750;2022-07-09T00:16:01;100378.06;;;17.67;74.31
52503;BME280;38412;53.638;20.750;2022-07-09T00:18:27;100377.59;;;17.55;74.41
52503;BME280;38412;53.638;20.750;2022-07-09T00:20:55;100370.72;;;17.53;74.17
52503;BME280;38412;53.638;20.750;2022-07-09T00:23:20;100373.91;;;17.48;74.55
52503;BME280;38412;53.638;20.750;2022-07-09T00:25:46;100379.31;;;17.40;74.73
52503;BME280;38412;53.638;20.750;2022-07-09T00:28:11;100383.84;;;17.39;74.73
52503;BME280;38412;53.638;20.750;2022-07-09T00:30:38;100374.94;;;17.47;74.26
52503;BME280;38412;53.638;20.750;2022-07-09T00:33:03;100373.25;;;17.46;74.33
52503;BME280;38412;53.638;20.750;2022-07-09T00:35:29;100373.44;;;17.44;74.74
52503;BME280;38412;53.638;20.750;2022-07-09T00:37:55;100379.00;;;17.35;75.17
52503;BME280;38412;53.638;20.750;2022-07-09T00:40:20;100380.84;;;17.42;75.07
52503;BME280;38412;53.638;20.750;2022-07-09T00:42:46;100377.94;;;17.44;74.75
52503;BME280;38412;53.638;20.750;2022-07-09T00:45:11;100372.78;;;17.42;74.78
52503;BME280;38412;53.638;20.750;2022-07-09T00:47:36;100379.13;;;17.41;74.69
52503;BME280;38412;53.638;20.750;2022-07-09T00:50:02;100381.84;;;17.33;74.13
52503;BME280;38412;53.638;20.750;2022-07-09T00:52:29;100384.38;;;17.35;74.59
52503;BME280;38412;53.638;20.750;2022-07-09T00:54:56;100375.13;;;17.37;74.85
52503;BME280;38412;53.638;20.750;2022-07-09T00:57:21;100384.22;;;17.36;74.75
52503;BME280;38412;53.638;20.750;2022-07-09T00:59:47;100390.69;;;17.50;74.63
52503;BME280;38412;53.638;20.750;2022-07-09T01:02:13;100379.63;;;17.45;74.39
52503;BME280;38412;53.638;20.750;2022-07-09T01:04:38;100379.13;;;17.41;74.44
52503;BME280;38412;53.638;20.750;2022-07-09T01:07:04;100384.22;;;17.36;74.96
52503;BME280;38412;53.638;20.750;2022-07-09T01:09:30;100385.22;;;17.35;75.05
52503;BME280;38412;53.638;20.750;2022-07-09T01:11:56;100381.50;;;17.44;75.08
52503;BME280;38412;53.638;20.750;2022-07-09T01:14:22;100375.47;;;17.42;74.98
52503;BME280;38412;53.638;20.750;2022-07-09T01:16:56;100369.72;;;17.45;74.68
52503;BME280;38412;53.638;20.750;2022-07-09T01:19:21;100366.84;;;17.55;74.64
52503;BME280;38412;53.638;20.750;2022-07-09T01:21:47;100363.47;;;17.61;74.47
52503;BME280;38412;53.638;20.750;2022-07-09T01:24:12;100357.25;;;17.61;74.34
52503;BME280;38412;53.638;20.750;2022-07-09T01:26:37;100364.00;;;17.57;74.47
52503;BME280;38412;53.638;20.750;2022-07-09T01:29:03;100356.00;;;17.40;74.79
52503;BME280;38412;53.638;20.750;2022-07-09T01:31:28;100354.09;;;17.49;74.50
52503;BME280;38412;53.638;20.750;2022-07-09T01:33:54;100352.41;;;17.48;74.53
52503;BME280;38412;53.638;20.750;2022-07-09T01:36:19;100361.38;;;17.40;74.49
52503;BME280;38412;53.638;20.750;2022-07-09T01:38:45;100361.53;;;17.39;74.87
52503;BME280;38412;53.638;20.750;2022-07-09T01:41:10;100355.78;;;17.50;74.39
52503;BME280;38412;53.638;20.750;2022-07-09T01:43:36;100352.75;;;17.53;74.39
52503;BME280;38412;53.638;20.750;2022-07-09T01:46:01;100348.38;;;17.52;74.05
52503;BME280;38412;53.638;20.750;2022-07-09T01:48:27;100350.06;;;17.53;73.49
52503;BME280;38412;53.638;20.750;2022-07-09T01:50:54;100344.91;;;17.35;74.14
52503;BME280;38412;53.638;20.750;2022-07-09T01:53:19;100346.28;;;17.31;74.12
52503;BME280;38412;53.638;20.750;2022-07-09T01:55:45;100349.47;;;17.35;74.23
52503;BME280;38412;53.638;20.750;2022-07-09T01:58:10;100339.72;;;17.34;74.17
52503;BME280;38412;53.638;20.750;2022-07-09T02:00:36;100335.91;;;17.28;74.10
52503;BME280;38412;53.638;20.750;2022-07-09T02:03:01;100325.84;;;17.22;74.06
52503;BME280;38412;53.638;20.750;2022-07-09T02:05:27;100321.63;;;17.28;74.07
52503;BME280;38412;53.638;20.750;2022-07-09T02:07:52;100326.19;;;17.19;74.33
52503;BME280;38412;53.638;20.750;2022-07-09T02:10:17;100318.13;;;17.19;73.92
52503;BME280;38412;53.638;20.750;2022-07-09T02:12:43;100303.72;;;17.20;73.92
52503;BME280;38412;53.638;20.750;2022-07-09T02:15:08;100306.19;;;17.21;73.42
52503;BME280;38412;53.638;20.750;2022-07-09T02:17:36;100307.03;;;17.30;72.99
52503;BME280;38412;53.638;20.750;2022-07-09T02:20:01;100291.59;;;17.24;73.33
52503;BME280;38412;53.638;20.750;2022-07-09T02:22:26;100292.31;;;17.18;73.63
52503;BME280;38412;53.638;20.750;2022-07-09T02:24:52;100295.00;;;17.18;73.63
52503;BME280;38412;53.638;20.750;2022-07-09T02:27:17;100286.06;;;17.17;72.87
52503;BME280;38412;53.638;20.750;2022-07-09T02:29:43;100290.97;;;17.14;72.62
52503;BME280;38412;53.638;20.750;2022-07-09T02:32:08;100282.59;;;17.09;73.08
52503;BME280;38412;53.638;20.750;2022-07-09T02:34:37;100277.94;;;16.94;73.92
52503;BME280;38412;53.638;20.750;2022-07-09T02:37:04;100279.56;;;17.03;74.22
52503;BME280;38412;53.638;20.750;2022-07-09T02:39:32;100278.69;;;17.19;74.09
52503;BME280;38412;53.638;20.750;2022-07-09T02:44:25;100274.84;;;17.22;74.24
52503;BME280;38412;53.638;20.750;2022-07-09T02:49:26;100287.59;;;17.20;74.18
52503;BME280;38412;53.638;20.750;2022-07-09T02:51:51;100276.00;;;17.19;74.23
52503;BME280;38412;53.638;20.750;2022-07-09T02:54:18;100277.00;;;17.27;74.10
52503;BME280;38412;53.638;20.750;2022-07-09T02:56:43;100271.13;;;17.23;74.05
52503;BME280;38412;53.638;20.750;2022-07-09T02:59:08;100274.97;;;17.29;73.88
52503;BME280;38412;53.638;20.750;2022-07-09T03:01:34;100275.59;;;17.39;73.33
52503;BME280;38412;53.638;20.750;2022-07-09T03:03:59;100270.06;;;17.40;73.08
52503;BME280;38412;53.638;20.750;2022-07-09T03:06:25;100266.22;;;17.35;72.86
52503;BME280;38412;53.638;20.750;2022-07-09T03:08:51;100269.97;;;17.17;73.52
52503;BME280;38412;53.638;20.750;2022-07-09T03:11:17;100265.63;;;17.16;74.02
52503;BME280;38412;53.638;20.750;2022-07-09T03:13:42;100271.81;;;17.17;73.89
52503;BME280;38412;53.638;20.750;2022-07-09T03:16:08;100265.44;;;17.26;73.82
52503;BME280;38412;53.638;20.750;2022-07-09T03:18:33;100259.16;;;17.34;74.02
52503;BME280;38412;53.638;20.750;2022-07-09T03:20:59;100257.63;;;17.39;74.11
52503;BME280;38412;53.638;20.750;2022-07-09T03:23:25;100266.31;;;17.50;73.95
52503;BME280;38412;53.638;20.750;2022-07-09T03:25:50;100261.88;;;17.65;73.51
52503;BME280;38412;53.638;20.750;2022-07-09T03:28:16;100256.34;;;17.58;73.60
52503;BME280;38412;53.638;20.750;2022-07-09T03:30:41;100257.69;;;17.54;73.47
52503;BME280;38412;53.638;20.750;2022-07-09T03:33:06;100266.19;;;17.43;74.28
52503;BME280;38412;53.638;20.750;2022-07-09T03:35:32;100265.09;;;17.52;74.40
52503;BME280;38412;53.638;20.750;2022-07-09T03:37:57;100265.34;;;17.42;74.82
52503;BME280;38412;53.638;20.750;2022-07-09T03:40:23;100260.53;;;17.61;74.35
52503;BME280;38412;53.638;20.750;2022-07-09T03:42:48;100253.84;;;17.57;74.41
52503;BME280;38412;53.638;20.750;2022-07-09T03:45:13;100256.66;;;17.63;74.56
52503;BME280;38412;53.638;20.750;2022-07-09T03:47:39;100254.91;;;17.71;74.48
52503;BME280;38412;53.638;20.750;2022-07-09T03:50:05;100254.34;;;17.52;75.04
52503;BME280;38412;53.638;20.750;2022-07-09T03:52:30;100251.66;;;17.21;76.76
52503;BME280;38412;53.638;20.750;2022-07-09T03:54:56;100254.56;;;17.51;75.39
52503;BME280;38412;53.638;20.750;2022-07-09T03:57:21;100250.69;;;17.53;75.45
52503;BME280;38412;53.638;20.750;2022-07-09T03:59:47;100248.22;;;17.75;75.01
52503;BME280;38412;53.638;20.750;2022-07-09T04:02:12;100252.94;;;17.96;74.47
52503;BME280;38412;53.638;20.750;2022-07-09T04:04:37;100254.09;;;18.01;74.46
52503;BME280;38412;53.638;20.750;2022-07-09T04:07:03;100254.44;;;17.98;74.47
52503;BME280;38412;53.638;20.750;2022-07-09T04:09:28;100256.72;;;18.10;74.12
52503;BME280;38412;53.638;20.750;2022-07-09T04:11:54;100247.22;;;18.22;73.98
52503;BME280;38412;53.638;20.750;2022-07-09T04:14:19;100240.44;;;18.26;73.96
52503;BME280;38412;53.638;20.750;2022-07-09T04:16:45;100239.66;;;18.40;73.40
52503;BME280;38412;53.638;20.750;2022-07-09T04:19:11;100237.59;;;18.42;73.67
52503;BME280;38412;53.638;20.750;2022-07-09T04:21:37;100234.09;;;18.42;73.88
52503;BME280;38412;53.638;20.750;2022-07-09T04:24:02;100219.66;;;18.20;74.98
52503;BME280;38412;53.638;20.750;2022-07-09T04:26:28;100221.00;;;18.39;74.20
52503;BME280;38412;53.638;20.750;2022-07-09T04:28:53;100227.91;;;18.56;74.26
52503;BME280;38412;53.638;20.750;2022-07-09T04:31:18;100236.63;;;18.58;74.18
52503;BME280;38412;53.638;20.750;2022-07-09T04:33:46;100226.50;;;18.75;73.45
52503;BME280;38412;53.638;20.750;2022-07-09T04:36:11;100225.31;;;18.93;73.33
52503;BME280;38412;53.638;20.750;2022-07-09T04:38:37;100232.38;;;19.09;72.98
52503;BME280;38412;53.638;20.750;2022-07-09T04:41:03;100223.84;;;19.05;72.93
52503;BME280;38412;53.638;20.750;2022-07-09T04:43:28;100226.22;;;19.15;72.57
52503;BME280;38412;53.638;20.750;2022-07-09T04:45:54;100227.41;;;19.27;72.23
52503;BME280;38412;53.638;20.750;2022-07-09T04:48:20;100233.41;;;19.08;72.89
52503;BME280;38412;53.638;20.750;2022-07-09T04:50:45;100225.28;;;18.78;73.92
52503;BME280;38412;53.638;20.750;2022-07-09T04:53:11;100226.69;;;19.18;73.01
52503;BME280;38412;53.638;20.750;2022-07-09T04:55:36;100225.09;;;19.24;72.85
52503;BME280;38412;53.638;20.750;2022-07-09T04:58:01;100219.56;;;19.47;71.82
52503;BME280;38412;53.638;20.750;2022-07-09T05:00:27;100214.63;;;19.51;71.47
52503;BME280;38412;53.638;20.750;2022-07-09T05:02:52;100227.88;;;19.67;71.63
52503;BME280;38412;53.638;20.750;2022-07-09T05:05:18;100221.84;;;19.65;71.85
52503;BME280;38412;53.638;20.750;2022-07-09T05:07:47;100210.84;;;20.03;70.80
52503;BME280;38412;53.638;20.750;2022-07-09T05:10:13;100216.22;;;20.31;70.16
52503;BME280;38412;53.638;20.750;2022-07-09T05:12:38;100213.28;;;20.48;69.04
52503;BME280;38412;53.638;20.750;2022-07-09T05:15:05;100222.56;;;20.67;69.01
52503;BME280;38412;53.638;20.750;2022-07-09T05:17:37;100216.59;;;20.78;68.27
52503;BME280;38412;53.638;20.750;2022-07-09T05:20:03;100210.63;;;20.89;67.20
52503;BME280;38412;53.638;20.750;2022-07-09T05:22:33;100210.94;;;20.44;67.97
52503;BME280;38412;53.638;20.750;2022-07-09T05:24:59;100218.50;;;20.56;68.20
52503;BME280;38412;53.638;20.750;2022-07-09T05:27:24;100222.56;;;20.67;67.49
52503;BME280;38412;53.638;20.750;2022-07-09T05:29:50;100214.19;;;20.61;68.11
52503;BME280;38412;53.638;20.750;2022-07-09T05:32:15;100215.03;;;20.97;67.20
52503;BME280;38412;53.638;20.750;2022-07-09T05:34:41;100207.50;;;20.86;67.19
52503;BME280;38412;53.638;20.750;2022-07-09T05:37:06;100213.97;;;20.91;67.67
52503;BME280;38412;53.638;20.750;2022-07-09T05:39:32;100203.31;;;20.76;67.63
52503;BME280;38412;53.638;20.750;2022-07-09T05:41:57;100209.09;;;20.73;67.57
52503;BME280;38412;53.638;20.750;2022-07-09T05:44:23;100202.66;;;20.74;67.82
52503;BME280;38412;53.638;20.750;2022-07-09T05:46:48;100197.50;;;20.86;67.40
52503;BME280;38412;53.638;20.750;2022-07-09T05:49:14;100193.06;;;21.07;66.95
52503;BME280;38412;53.638;20.750;2022-07-09T05:51:39;100199.78;;;21.24;66.49
52503;BME280;38412;53.638;20.750;2022-07-09T05:54:06;100205.78;;;21.13;66.03
52503;BME280;38412;53.638;20.750;2022-07-09T05:56:31;100196.41;;;21.09;65.61
52503;BME280;38412;53.638;20.750;2022-07-09T05:58:56;100194.16;;;21.19;65.89
52503;BME280;38412;53.638;20.750;2022-07-09T06:01:22;100179.94;;;21.03;65.68
52503;BME280;38412;53.638;20.750;2022-07-09T06:03:47;100195.63;;;21.21;65.46
52503;BME280;38412;53.638;20.750;2022-07-09T06:06:13;100189.41;;;21.28;65.41
52503;BME280;38412;53.638;20.750;2022-07-09T06:08:39;100182.56;;;21.38;64.61
52503;BME280;38412;53.638;20.750;2022-07-09T06:11:04;100181.59;;;21.53;64.11
52503;BME280;38412;53.638;20.750;2022-07-09T06:13:29;100180.78;;;21.59;64.34
52503;BME280;38412;53.638;20.750;2022-07-09T06:15:55;100182.44;;;21.67;64.39
52503;BME280;38412;53.638;20.750;2022-07-09T06:18:21;100171.63;;;21.60;64.35
52503;BME280;38412;53.638;20.750;2022-07-09T06:20:47;100176.41;;;21.64;64.17
52503;BME280;38412;53.638;20.750;2022-07-09T06:23:13;100179.06;;;21.44;64.73
52503;BME280;38412;53.638;20.750;2022-07-09T06:25:39;100178.47;;;21.49;64.52
52503;BME280;38412;53.638;20.750;2022-07-09T06:28:04;100173.81;;;21.36;65.12
52503;BME280;38412;53.638;20.750;2022-07-09T06:30:30;100175.16;;;21.54;65.00
52503;BME280;38412;53.638;20.750;2022-07-09T06:32:56;100176.03;;;21.68;64.59
52503;BME280;38412;53.638;20.750;2022-07-09T06:35:22;100188.25;;;21.63;64.02
52503;BME280;38412;53.638;20.750;2022-07-09T06:37:47;100184.53;;;21.58;64.28
52503;BME280;38412;53.638;20.750;2022-07-09T06:40:13;100176.72;;;21.35;65.11
52503;BME280;38412;53.638;20.750;2022-07-09T06:42:38;100178.59;;;21.28;65.83
52503;BME280;38412;53.638;20.750;2022-07-09T06:45:04;100172.75;;;21.24;65.72
52503;BME280;38412;53.638;20.750;2022-07-09T06:47:29;100169.88;;;21.32;65.72
52503;BME280;38412;53.638;20.750;2022-07-09T06:49:55;100175.34;;;21.46;65.86
52503;BME280;38412;53.638;20.750;2022-07-09T06:52:20;100167.25;;;21.52;65.00
52503;BME280;38412;53.638;20.750;2022-07-09T06:54:45;100173.44;;;21.39;65.32
52503;BME280;38412;53.638;20.750;2022-07-09T06:57:11;100163.69;;;21.45;64.80
52503;BME280;38412;53.638;20.750;2022-07-09T06:59:39;100174.56;;;21.78;64.35
52503;BME280;38412;53.638;20.750;2022-07-09T07:02:04;100168.09;;;21.66;64.00
52503;BME280;38412;53.638;20.750;2022-07-09T07:04:30;100161.84;;;21.66;64.38
52503;BME280;38412;53.638;20.750;2022-07-09T07:06:55;100165.00;;;22.09;62.69
52503;BME280;38412;53.638;20.750;2022-07-09T07:09:21;100164.38;;;21.94;63.06
52503;BME280;38412;53.638;20.750;2022-07-09T07:11:47;100172.47;;;22.14;62.16
52503;BME280;38412;53.638;20.750;2022-07-09T07:14:13;100162.91;;;22.24;61.92
52503;BME280;38412;53.638;20.750;2022-07-09T07:16:39;100178.75;;;21.94;62.27
52503;BME280;38412;53.638;20.750;2022-07-09T07:19:04;100168.75;;;21.88;62.90
52503;BME280;38412;53.638;20.750;2022-07-09T07:21:30;100171.03;;;21.91;62.47
52503;BME280;38412;53.638;20.750;2022-07-09T07:23:55;100170.41;;;21.96;62.60
52503;BME280;38412;53.638;20.750;2022-07-09T07:26:21;100174.53;;;21.58;63.47
52503;BME280;38412;53.638;20.750;2022-07-09T07:28:46;100171.00;;;21.64;63.61
52503;BME280;38412;53.638;20.750;2022-07-09T07:31:12;100177.63;;;21.55;63.44
52503;BME280;38412;53.638;20.750;2022-07-09T07:33:37;100167.91;;;21.68;63.68
52503;BME280;38412;53.638;20.750;2022-07-09T07:36:03;100173.53;;;21.86;63.47
52503;BME280;38412;53.638;20.750;2022-07-09T07:38:29;100170.78;;;21.46;64.36
52503;BME280;38412;53.638;20.750;2022-07-09T07:40:54;100173.94;;;21.83;63.62
52503;BME280;38412;53.638;20.750;2022-07-09T07:43:20;100171.66;;;22.13;62.59
52503;BME280;38412;53.638;20.750;2022-07-09T07:45:45;100166.25;;;22.00;62.07
52503;BME280;38412;53.638;20.750;2022-07-09T07:48:11;100166.88;;;21.89;62.78
52503;BME280;38412;53.638;20.750;2022-07-09T07:50:36;100169.97;;;21.86;62.76
52503;BME280;38412;53.638;20.750;2022-07-09T07:53:06;100165.63;;;21.98;62.55
52503;BME280;38412;53.638;20.750;2022-07-09T07:55:32;100165.00;;;22.16;61.87
52503;BME280;38412;53.638;20.750;2022-07-09T07:57:57;100164.16;;;22.29;61.13
52503;BME280;38412;53.638;20.750;2022-07-09T08:00:22;100166.88;;;22.29;60.68
52503;BME280;38412;53.638;20.750;2022-07-09T08:02:48;100163.97;;;21.97;61.74
52503;BME280;38412;53.638;20.750;2022-07-09T08:05:13;100166.25;;;22.07;61.00
52503;BME280;38412;53.638;20.750;2022-07-09T08:07:39;100173.53;;;22.13;61.19
52503;BME280;38412;53.638;20.750;2022-07-09T08:10:04;100164.56;;;22.06;62.02
52503;BME280;38412;53.638;20.750;2022-07-09T08:12:30;100161.88;;;21.99;61.93
52503;BME280;38412;53.638;20.750;2022-07-09T08:14:55;100153.97;;;22.11;61.34
52503;BME280;38412;53.638;20.750;2022-07-09T08:17:21;100146.47;;;21.99;61.17
52503;BME280;38412;53.638;20.750;2022-07-09T08:19:46;100152.28;;;22.16;60.06
52503;BME280;38412;53.638;20.750;2022-07-09T08:22:11;100141.22;;;22.58;60.55
52503;BME280;38412;53.638;20.750;2022-07-09T08:24:37;100127.66;;;22.64;58.73
52503;BME280;38412;53.638;20.750;2022-07-09T08:27:02;100132.25;;;22.64;58.80
52503;BME280;38412;53.638;20.750;2022-07-09T08:29:28;100137.84;;;22.69;56.94
52503;BME280;38412;53.638;20.750;2022-07-09T08:31:53;100129.94;;;22.68;54.83
52503;BME280;38412;53.638;20.750;2022-07-09T08:34:19;100142.88;;;22.66;54.40
52503;BME280;38412;53.638;20.750;2022-07-09T08:36:44;100131.09;;;22.92;53.88
52503;BME280;38412;53.638;20.750;2022-07-09T08:39:10;100127.31;;;22.99;53.66
52503;BME280;38412;53.638;20.750;2022-07-09T08:41:35;100121.41;;;23.16;53.66
52503;BME280;38412;53.638;20.750;2022-07-09T08:44:02;100130.00;;;23.13;53.02
52503;BME280;38412;53.638;20.750;2022-07-09T08:46:28;100112.50;;;23.40;52.28
52503;BME280;38412;53.638;20.750;2022-07-09T08:48:53;100109.19;;;23.38;52.46
52503;BME280;38412;53.638;20.750;2022-07-09T08:51:19;100113.25;;;23.54;53.18
52503;BME280;38412;53.638;20.750;2022-07-09T08:53:45;100109.03;;;23.58;52.39
52503;BME280;38412;53.638;20.750;2022-07-09T08:56:11;100103.50;;;23.78;51.83
52503;BME280;38412;53.638;20.750;2022-07-09T08:58:39;100099.81;;;23.91;52.36
52503;BME280;38412;53.638;20.750;2022-07-09T09:01:05;100106.44;;;24.02;51.70
52503;BME280;38412;53.638;20.750;2022-07-09T09:03:31;100093.88;;;23.76;51.31
52503;BME280;38412;53.638;20.750;2022-07-09T09:06:01;100091.72;;;23.59;50.72
52503;BME280;38412;53.638;20.750;2022-07-09T09:08:27;100088.84;;;23.54;50.94
52503;BME280;38412;53.638;20.750;2022-07-09T09:10:53;100088.28;;;23.46;49.26
52503;BME280;38412;53.638;20.750;2022-07-09T09:13:18;100078.28;;;23.71;49.05
52503;BME280;38412;53.638;20.750;2022-07-09T09:15:44;100089.66;;;23.87;50.40
52503;BME280;38412;53.638;20.750;2022-07-09T09:18:10;100077.75;;;23.88;47.84
52503;BME280;38412;53.638;20.750;2022-07-09T09:20:35;100081.47;;;24.12;48.16
52503;BME280;38412;53.638;20.750;2022-07-09T09:23:01;100076.00;;;23.93;48.97
52503;BME280;38412;53.638;20.750;2022-07-09T09:25:29;100076.88;;;24.12;48.61
52503;BME280;38412;53.638;20.750;2022-07-09T09:27:55;100077.34;;;24.28;48.27
52503;BME280;38412;53.638;20.750;2022-07-09T09:30:21;100090.19;;;24.57;47.92
52503;BME280;38412;53.638;20.750;2022-07-09T09:33:05;100087.69;;;24.56;47.72
52503;BME280;38412;53.638;20.750;2022-07-09T09:35:34;100075.63;;;24.52;45.75
52503;BME280;38412;53.638;20.750;2022-07-09T09:38:00;100072.44;;;24.73;47.24
52503;BME280;38412;53.638;20.750;2022-07-09T09:40:25;100074.28;;;24.91;46.38
52503;BME280;38412;53.638;20.750;2022-07-09T09:42:51;100083.44;;;24.78;45.17
52503;BME280;38412;53.638;20.750;2022-07-09T09:45:17;100074.97;;;24.87;45.69
52503;BME280;38412;53.638;20.750;2022-07-09T09:47:47;100072.50;;;24.48;45.43
52503;BME280;38412;53.638;20.750;2022-07-09T09:50:15;100070.41;;;24.32;46.79
52503;BME280;38412;53.638;20.750;2022-07-09T09:52:41;100080.66;;;24.48;47.28
52503;BME280;38412;53.638;20.750;2022-07-09T09:55:06;100068.66;;;24.37;47.24
52503;BME280;38412;53.638;20.750;2022-07-09T09:57:33;100075.38;;;23.98;47.23
52503;BME280;38412;53.638;20.750;2022-07-09T09:59:59;100074.50;;;23.97;47.96
52503;BME280;38412;53.638;20.750;2022-07-09T10:02:25;100068.38;;;24.27;48.00
52503;BME280;38412;53.638;20.750;2022-07-09T10:04:52;100073.97;;;24.32;47.66
52503;BME280;38412;53.638;20.750;2022-07-09T10:07:17;100066.16;;;23.99;47.43
52503;BME280;38412;53.638;20.750;2022-07-09T10:09:55;100075.09;;;23.81;47.85
52503;BME280;38412;53.638;20.750;2022-07-09T10:12:29;100073.78;;;23.58;49.47
52503;BME280;38412;53.638;20.750;2022-07-09T10:17:38;100083.13;;;23.94;48.85
52503;BME280;38412;53.638;20.750;2022-07-09T10:20:04;100080.56;;;24.18;47.64
52503;BME280;38412;53.638;20.750;2022-07-09T10:25:01;100080.25;;;24.51;47.85
52503;BME280;38412;53.638;20.750;2022-07-09T10:27:27;100079.94;;;24.59;46.82
52503;BME280;38412;53.638;20.750;2022-07-09T10:29:53;100062.84;;;24.15;47.33
52503;BME280;38412;53.638;20.750;2022-07-09T10:32:32;100073.69;;;24.59;47.06
52503;BME280;38412;53.638;20.750;2022-07-09T10:34:58;100063.31;;;24.68;47.04
52503;BME280;38412;53.638;20.750;2022-07-09T10:37:41;100060.84;;;24.66;48.29
52503;BME280;38412;53.638;20.750;2022-07-09T10:42:39;100060.72;;;24.73;47.48
52503;BME280;38412;53.638;20.750;2022-07-09T10:47:45;100060.53;;;25.35;47.13
52503;BME280;38412;53.638;20.750;2022-07-09T10:50:15;100046.34;;;25.45;46.76
52503;BME280;38412;53.638;20.750;2022-07-09T10:52:40;100049.31;;;25.43;46.65
52503;BME280;38412;53.638;20.750;2022-07-09T10:55:06;100050.88;;;25.62;45.70
52503;BME280;38412;53.638;20.750;2022-07-09T10:57:31;100040.34;;;25.66;46.34
52503;BME280;38412;53.638;20.750;2022-07-09T10:59:59;100044.94;;;25.66;46.03
52503;BME280;38412;53.638;20.750;2022-07-09T11:02:25;100044.00;;;25.83;45.11
52503;BME280;38412;53.638;20.750;2022-07-09T11:04:51;100038.34;;;25.73;44.53
52503;BME280;38412;53.638;20.750;2022-07-09T11:07:20;100040.59;;;26.00;45.39
52503;BME280;38412;53.638;20.750;2022-07-09T11:09:47;100044.13;;;25.65;44.14
52503;BME280;38412;53.638;20.750;2022-07-09T11:12:19;100042.47;;;25.76;44.92
52503;BME280;38412;53.638;20.750;2022-07-09T11:14:49;100046.00;;;25.76;44.93
52503;BME280;38412;53.638;20.750;2022-07-09T11:17:15;100046.59;;;25.55;44.87
52503;BME280;38412;53.638;20.750;2022-07-09T11:19:40;100043.75;;;25.08;46.42
52503;BME280;38412;53.638;20.750;2022-07-09T11:22:06;100047.97;;;24.92;45.77
52503;BME280;38412;53.638;20.750;2022-07-09T11:24:32;100042.88;;;24.65;46.49
52503;BME280;38412;53.638;20.750;2022-07-09T11:27:04;100037.00;;;24.50;46.12
52503;BME280;38412;53.638;20.750;2022-07-09T11:29:29;100038.97;;;24.42;47.13
52503;BME280;38412;53.638;20.750;2022-07-09T11:31:55;100039.53;;;24.26;47.11
52503;BME280;38412;53.638;20.750;2022-07-09T11:34:21;100045.56;;;24.28;48.34
52503;BME280;38412;53.638;20.750;2022-07-09T11:36:47;100042.25;;;24.26;48.73
52503;BME280;38412;53.638;20.750;2022-07-09T11:39:28;100045.44;;;24.05;50.00
52503;BME280;38412;53.638;20.750;2022-07-09T11:41:54;100042.09;;;23.84;50.05
52503;BME280;38412;53.638;20.750;2022-07-09T11:44:20;100043.63;;;23.73;50.72
52503;BME280;38412;53.638;20.750;2022-07-09T11:46:59;100053.97;;;23.83;50.15
52503;BME280;38412;53.638;20.750;2022-07-09T11:49:31;100045.56;;;23.66;49.93
52503;BME280;38412;53.638;20.750;2022-07-09T11:51:56;100051.16;;;23.71;48.98
52503;BME280;38412;53.638;20.750;2022-07-09T11:54:26;100051.81;;;23.41;48.88
52503;BME280;38412;53.638;20.750;2022-07-09T11:56:52;100050.31;;;23.77;47.42
52503;BME280;38412;53.638;20.750;2022-07-09T11:59:27;100044.38;;;24.24;47.67
52503;BME280;38412;53.638;20.750;2022-07-09T12:01:56;100054.41;;;24.23;46.77
52503;BME280;38412;53.638;20.750;2022-07-09T12:04:21;100047.00;;;23.94;46.69
52503;BME280;38412;53.638;20.750;2022-07-09T12:06:47;100042.28;;;24.45;46.54
52503;BME280;38412;53.638;20.750;2022-07-09T12:09:13;100038.09;;;24.42;45.38
52503;BME280;38412;53.638;20.750;2022-07-09T12:11:39;100042.44;;;24.31;44.24
52503;BME280;38412;53.638;20.750;2022-07-09T12:14:05;100031.94;;;24.72;44.24
52503;BME280;38412;53.638;20.750;2022-07-09T12:16:30;100034.75;;;24.77;44.19
52503;BME280;38412;53.638;20.750;2022-07-09T12:18:55;100031.66;;;24.61;44.94
52503;BME280;38412;53.638;20.750;2022-07-09T12:21:22;100033.06;;;24.64;44.86
52503;BME280;38412;53.638;20.750;2022-07-09T12:23:47;100032.47;;;24.62;45.17
52503;BME280;38412;53.638;20.750;2022-07-09T12:26:12;100032.44;;;24.80;44.54
52503;BME280;38412;53.638;20.750;2022-07-09T12:28:38;100028.19;;;24.85;44.58
52503;BME280;38412;53.638;20.750;2022-07-09T12:31:03;100034.06;;;24.51;45.22
52503;BME280;38412;53.638;20.750;2022-07-09T12:33:30;100030.22;;;24.59;45.77
52503;BME280;38412;53.638;20.750;2022-07-09T12:35:55;100030.34;;;24.94;45.24
52503;BME280;38412;53.638;20.750;2022-07-09T12:38:21;100024.00;;;25.00;43.49
52503;BME280;38412;53.638;20.750;2022-07-09T12:40:46;100019.94;;;24.91;43.36
52503;BME280;38412;53.638;20.750;2022-07-09T12:43:11;100025.56;;;24.78;41.89
52503;BME280;38412;53.638;20.750;2022-07-09T12:45:37;100024.44;;;24.86;42.82
52503;BME280;38412;53.638;20.750;2022-07-09T12:48:02;100033.91;;;25.25;41.32
52503;BME280;38412;53.638;20.750;2022-07-09T12:50:28;100030.84;;;25.33;42.77